sensor_id;sensor_type;location;lat;lon;timestamp;P1;durP1;ratioP1;P2;durP2;ratioP2
23394;SDS011;11870;53.084;18.206;2023-10-19T00:00:35;77.28;;;25.15;;
23394;SDS011;11870;53.084;18.206;2023-10-19T00:03:24;57.45;;;20.30;;
23394;SDS011;11870;53.084;18.206;2023-10-19T00:05:51;49.35;;;20.38;;
23394;SDS011;11870;53.084;18.206;2023-10-19T00:08:17;49.03;;;19.02;;
23394;SDS011;11870;53.084;18.206;2023-10-19T00:10:47;61.40;;;21.20;;
23394;SDS011;11870;53.084;18.206;2023-10-19T00:13:36;69.55;;;24.85;;
23394;SDS011;11870;53.084;18.206;2023-10-19T00:16:04;64.90;;;23.98;;
23394;SDS011;11870;53.084;18.206;2023-10-19T00:18:46;56.65;;;24.40;;
23394;SDS011;11870;53.084;18.206;2023-10-19T00:21:14;60.33;;;22.77;;
23394;SDS011;11870;53.084;18.206;2023-10-19T00:23:50;55.78;;;22.85;;
23394;SDS011;11870;53.084;18.206;2023-10-19T00:26:20;110.80;;;33.42;;
23394;SDS011;11870;53.084;18.206;2023-10-19T00:28:50;69.75;;;26.55;;
23394;SDS011;11870;53.084;18.206;2023-10-19T00:31:25;86.25;;;28.77;;
23394;SDS011;11870;53.084;18.206;2023-10-19T00:33:52;84.40;;;29.00;;
23394;SDS011;11870;53.084;18.206;2023-10-19T00:36:23;81.63;;;28.45;;
23394;SDS011;11870;53.084;18.206;2023-10-19T00:38:50;62.78;;;24.88;;
23394;SDS011;11870;53.084;18.206;2023-10-19T00:41:25;56.08;;;21.98;;
23394;SDS011;11870;53.084;18.206;2023-10-19T00:43:55;55.38;;;22.48;;
23394;SDS011;11870;53.084;18.206;2023-10-19T00:46:37;47.50;;;20.63;;
23394;SDS011;11870;53.084;18.206;2023-10-19T00:49:07;42.95;;;18.23;;
23394;SDS011;11870;53.084;18.206;2023-10-19T00:51:38;49.45;;;19.67;;
23394;SDS011;11870;53.084;18.206;2023-10-19T00:54:07;43.80;;;17.50;;
23394;SDS011;11870;53.084;18.206;2023-10-19T00:56:36;45.13;;;18.02;;
23394;SDS011;11870;53.084;18.206;2023-10-19T00:59:03;47.42;;;17.83;;
23394;SDS011;11870;53.084;18.206;2023-10-19T01:01:38;41.60;;;18.15;;
23394;SDS011;11870;53.084;18.206;2023-10-19T01:04:12;40.80;;;16.13;;
23394;SDS011;11870;53.084;18.206;2023-10-19T01:06:49;37.55;;;16.33;;
23394;SDS011;11870;53.084;18.206;2023-10-19T01:09:27;35.83;;;14.85;;
23394;SDS011;11870;53.084;18.206;2023-10-19T01:11:53;40.97;;;15.93;;
23394;SDS011;11870;53.084;18.206;2023-10-19T01:14:22;34.85;;;14.82;;
23394;SDS011;11870;53.084;18.206;2023-10-19T01:16:53;39.28;;;15.07;;
23394;SDS011;11870;53.084;18.206;2023-10-19T01:19:24;36.72;;;13.75;;
23394;SDS011;11870;53.084;18.206;2023-10-19T01:21:52;30.50;;;12.38;;
23394;SDS011;11870;53.084;18.206;2023-10-19T01:24:25;31.13;;;12.65;;
23394;SDS011;11870;53.084;18.206;2023-10-19T01:27:09;33.67;;;12.20;;
23394;SDS011;11870;53.084;18.206;2023-10-19T01:29:35;35.47;;;12.43;;
23394;SDS011;11870;53.084;18.206;2023-10-19T01:32:04;31.60;;;12.80;;
23394;SDS011;11870;53.084;18.206;2023-10-19T01:34:34;26.90;;;11.45;;
23394;SDS011;11870;53.084;18.206;2023-10-19T01:37:01;31.50;;;13.13;;
23394;SDS011;11870;53.084;18.206;2023-10-19T01:39:33;30.90;;;11.68;;
23394;SDS011;11870;53.084;18.206;2023-10-19T01:42:04;30.48;;;12.35;;
23394;SDS011;11870;53.084;18.206;2023-10-19T01:44:32;30.98;;;11.57;;
23394;SDS011;11870;53.084;18.206;2023-10-19T01:47:01;29.80;;;11.38;;
23394;SDS011;11870;53.084;18.206;2023-10-19T01:49:31;29.77;;;11.65;;
23394;SDS011;11870;53.084;18.206;2023-10-19T01:51:57;32.08;;;13.18;;
23394;SDS011;11870;53.084;18.206;2023-10-19T01:54:23;42.38;;;16.10;;
23394;SDS011;11870;53.084;18.206;2023-10-19T01:56:54;49.50;;;20.05;;
23394;SDS011;11870;53.084;18.206;2023-10-19T01:59:24;43.80;;;16.02;;
23394;SDS011;11870;53.084;18.206;2023-10-19T02:01:53;38.17;;;15.93;;
23394;SDS011;11870;53.084;18.206;2023-10-19T02:04:20;34.75;;;15.98;;
23394;SDS011;11870;53.084;18.206;2023-10-19T02:06:50;37.47;;;14.55;;
23394;SDS011;11870;53.084;18.206;2023-10-19T02:09:18;36.08;;;14.98;;
23394;SDS011;11870;53.084;18.206;2023-10-19T02:11:56;41.30;;;15.13;;
23394;SDS011;11870;53.084;18.206;2023-10-19T02:14:23;29.33;;;12.98;;
23394;SDS011;11870;53.084;18.206;2023-10-19T02:16:56;25.50;;;12.48;;
23394;SDS011;11870;53.084;18.206;2023-10-19T02:19:24;31.38;;;14.32;;
23394;SDS011;11870;53.084;18.206;2023-10-19T02:21:52;38.30;;;14.50;;
23394;SDS011;11870;53.084;18.206;2023-10-19T02:24:24;50.80;;;17.48;;
23394;SDS011;11870;53.084;18.206;2023-10-19T02:26:52;44.03;;;16.58;;
23394;SDS011;11870;53.084;18.206;2023-10-19T02:29:22;44.15;;;16.65;;
23394;SDS011;11870;53.084;18.206;2023-10-19T02:31:49;39.33;;;15.45;;
23394;SDS011;11870;53.084;18.206;2023-10-19T02:34:16;32.10;;;13.25;;
23394;SDS011;11870;53.084;18.206;2023-10-19T02:36:43;36.08;;;14.95;;
23394;SDS011;11870;53.084;18.206;2023-10-19T02:39:11;31.40;;;14.60;;
23394;SDS011;11870;53.084;18.206;2023-10-19T02:41:40;25.38;;;11.93;;
23394;SDS011;11870;53.084;18.206;2023-10-19T02:44:13;27.63;;;12.50;;
23394;SDS011;11870;53.084;18.206;2023-10-19T02:46:45;22.50;;;10.80;;
23394;SDS011;11870;53.084;18.206;2023-10-19T02:49:13;25.38;;;11.65;;
23394;SDS011;11870;53.084;18.206;2023-10-19T02:51:44;32.13;;;12.93;;
23394;SDS011;11870;53.084;18.206;2023-10-19T02:54:11;33.30;;;13.20;;
23394;SDS011;11870;53.084;18.206;2023-10-19T02:56:48;36.45;;;12.55;;
23394;SDS011;11870;53.084;18.206;2023-10-19T02:59:17;33.58;;;13.13;;
23394;SDS011;11870;53.084;18.206;2023-10-19T03:01:50;28.92;;;11.82;;
23394;SDS011;11870;53.084;18.206;2023-10-19T03:04:17;29.55;;;12.20;;
23394;SDS011;11870;53.084;18.206;2023-10-19T03:06:44;38.78;;;14.02;;
23394;SDS011;11870;53.084;18.206;2023-10-19T03:09:10;95.35;;;38.55;;
23394;SDS011;11870;53.084;18.206;2023-10-19T03:11:54;119.35;;;45.90;;
23394;SDS011;11870;53.084;18.206;2023-10-19T03:14:25;44.53;;;17.35;;
23394;SDS011;11870;53.084;18.206;2023-10-19T03:16:52;35.10;;;15.05;;
23394;SDS011;11870;53.084;18.206;2023-10-19T03:19:20;33.58;;;13.73;;
23394;SDS011;11870;53.084;18.206;2023-10-19T03:21:46;34.88;;;14.48;;
23394;SDS011;11870;53.084;18.206;2023-10-19T03:24:16;36.42;;;14.63;;
23394;SDS011;11870;53.084;18.206;2023-10-19T03:26:49;29.05;;;12.93;;
23394;SDS011;11870;53.084;18.206;2023-10-19T03:29:18;34.72;;;12.65;;
23394;SDS011;11870;53.084;18.206;2023-10-19T03:31:48;24.23;;;11.73;;
23394;SDS011;11870;53.084;18.206;2023-10-19T03:34:14;26.02;;;11.40;;
23394;SDS011;11870;53.084;18.206;2023-10-19T03:36:44;27.58;;;12.93;;
23394;SDS011;11870;53.084;18.206;2023-10-19T03:39:10;28.08;;;12.82;;
23394;SDS011;11870;53.084;18.206;2023-10-19T03:41:38;31.30;;;12.88;;
23394;SDS011;11870;53.084;18.206;2023-10-19T03:44:08;30.10;;;12.40;;
23394;SDS011;11870;53.084;18.206;2023-10-19T03:46:57;30.10;;;12.35;;
23394;SDS011;11870;53.084;18.206;2023-10-19T03:49:29;28.75;;;12.27;;
23394;SDS011;11870;53.084;18.206;2023-10-19T03:52:01;26.83;;;12.52;;
23394;SDS011;11870;53.084;18.206;2023-10-19T03:54:33;32.83;;;13.32;;
23394;SDS011;11870;53.084;18.206;2023-10-19T03:57:06;31.73;;;12.90;;
23394;SDS011;11870;53.084;18.206;2023-10-19T03:59:37;23.88;;;12.05;;
23394;SDS011;11870;53.084;18.206;2023-10-19T04:02:03;32.33;;;14.00;;
23394;SDS011;11870;53.084;18.206;2023-10-19T04:04:40;31.63;;;13.52;;
23394;SDS011;11870;53.084;18.206;2023-10-19T04:07:10;30.70;;;12.10;;
23394;SDS011;11870;53.084;18.206;2023-10-19T04:09:42;34.70;;;13.32;;
23394;SDS011;11870;53.084;18.206;2023-10-19T04:12:29;31.20;;;13.55;;
23394;SDS011;11870;53.084;18.206;2023-10-19T04:14:56;26.90;;;12.48;;
23394;SDS011;11870;53.084;18.206;2023-10-19T04:17:23;36.28;;;14.43;;
23394;SDS011;11870;53.084;18.206;2023-10-19T04:19:50;32.95;;;14.52;;
23394;SDS011;11870;53.084;18.206;2023-10-19T04:22:20;26.92;;;12.10;;
23394;SDS011;11870;53.084;18.206;2023-10-19T04:24:52;30.17;;;13.88;;
23394;SDS011;11870;53.084;18.206;2023-10-19T04:27:19;35.88;;;15.25;;
23394;SDS011;11870;53.084;18.206;2023-10-19T04:29:48;41.17;;;16.98;;
23394;SDS011;11870;53.084;18.206;2023-10-19T04:32:15;37.92;;;16.63;;
23394;SDS011;11870;53.084;18.206;2023-10-19T04:34:51;42.78;;;17.50;;
23394;SDS011;11870;53.084;18.206;2023-10-19T04:37:18;47.55;;;17.90;;
23394;SDS011;11870;53.084;18.206;2023-10-19T04:39:45;36.40;;;15.88;;
23394;SDS011;11870;53.084;18.206;2023-10-19T04:42:11;39.33;;;16.88;;
23394;SDS011;11870;53.084;18.206;2023-10-19T04:44:37;43.08;;;16.50;;
23394;SDS011;11870;53.084;18.206;2023-10-19T04:47:04;54.10;;;20.35;;
23394;SDS011;11870;53.084;18.206;2023-10-19T04:49:30;56.42;;;22.80;;
23394;SDS011;11870;53.084;18.206;2023-10-19T04:51:56;48.10;;;20.30;;
23394;SDS011;11870;53.084;18.206;2023-10-19T04:54:23;56.38;;;22.50;;
23394;SDS011;11870;53.084;18.206;2023-10-19T04:56:49;65.05;;;23.02;;
23394;SDS011;11870;53.084;18.206;2023-10-19T04:59:18;57.83;;;21.77;;
23394;SDS011;11870;53.084;18.206;2023-10-19T05:01:44;105.63;;;36.25;;
23394;SDS011;11870;53.084;18.206;2023-10-19T05:04:10;72.32;;;26.48;;
23394;SDS011;11870;53.084;18.206;2023-10-19T05:06:38;94.80;;;31.55;;
23394;SDS011;11870;53.084;18.206;2023-10-19T05:09:04;147.60;;;48.00;;
23394;SDS011;11870;53.084;18.206;2023-10-19T05:11:31;108.03;;;37.63;;
23394;SDS011;11870;53.084;18.206;2023-10-19T05:13:57;91.00;;;32.10;;
23394;SDS011;11870;53.084;18.206;2023-10-19T05:16:24;71.55;;;28.90;;
23394;SDS011;11870;53.084;18.206;2023-10-19T05:18:51;76.15;;;30.90;;
23394;SDS011;11870;53.084;18.206;2023-10-19T05:21:18;67.85;;;28.13;;
23394;SDS011;11870;53.084;18.206;2023-10-19T05:23:44;69.35;;;29.15;;
23394;SDS011;11870;53.084;18.206;2023-10-19T05:26:10;70.93;;;28.85;;
23394;SDS011;11870;53.084;18.206;2023-10-19T05:28:38;92.10;;;35.67;;
23394;SDS011;11870;53.084;18.206;2023-10-19T05:31:04;215.50;;;63.40;;
23394;SDS011;11870;53.084;18.206;2023-10-19T05:33:30;170.95;;;58.25;;
23394;SDS011;11870;53.084;18.206;2023-10-19T05:35:58;113.55;;;39.45;;
23394;SDS011;11870;53.084;18.206;2023-10-19T05:38:26;76.47;;;29.27;;
23394;SDS011;11870;53.084;18.206;2023-10-19T05:40:53;70.32;;;29.75;;
23394;SDS011;11870;53.084;18.206;2023-10-19T05:43:21;64.03;;;28.38;;
23394;SDS011;11870;53.084;18.206;2023-10-19T05:45:47;76.82;;;29.30;;
23394;SDS011;11870;53.084;18.206;2023-10-19T05:48:15;78.38;;;27.00;;
23394;SDS011;11870;53.084;18.206;2023-10-19T05:50:41;90.80;;;26.98;;
23394;SDS011;11870;53.084;18.206;2023-10-19T05:53:08;77.55;;;25.60;;
23394;SDS011;11870;53.084;18.206;2023-10-19T05:55:34;71.07;;;26.50;;
23394;SDS011;11870;53.084;18.206;2023-10-19T05:58:01;66.25;;;27.42;;
23394;SDS011;11870;53.084;18.206;2023-10-19T06:00:30;65.80;;;26.13;;
23394;SDS011;11870;53.084;18.206;2023-10-19T06:02:56;66.45;;;26.70;;
23394;SDS011;11870;53.084;18.206;2023-10-19T06:05:23;69.13;;;28.25;;
23394;SDS011;11870;53.084;18.206;2023-10-19T06:07:50;66.63;;;27.85;;
23394;SDS011;11870;53.084;18.206;2023-10-19T06:10:17;77.10;;;32.10;;
23394;SDS011;11870;53.084;18.206;2023-10-19T06:12:46;96.22;;;42.20;;
23394;SDS011;11870;53.084;18.206;2023-10-19T06:15:13;89.70;;;42.22;;
23394;SDS011;11870;53.084;18.206;2023-10-19T06:17:40;84.72;;;37.95;;
23394;SDS011;11870;53.084;18.206;2023-10-19T06:20:07;79.63;;;35.17;;
23394;SDS011;11870;53.084;18.206;2023-10-19T06:22:47;79.63;;;32.42;;
23394;SDS011;11870;53.084;18.206;2023-10-19T06:25:20;76.95;;;31.67;;
23394;SDS011;11870;53.084;18.206;2023-10-19T06:27:47;73.30;;;30.48;;
23394;SDS011;11870;53.084;18.206;2023-10-19T06:30:14;71.63;;;30.75;;
23394;SDS011;11870;53.084;18.206;2023-10-19T06:32:45;63.40;;;29.23;;
23394;SDS011;11870;53.084;18.206;2023-10-19T06:35:13;76.50;;;32.85;;
23394;SDS011;11870;53.084;18.206;2023-10-19T06:37:39;76.25;;;32.70;;
23394;SDS011;11870;53.084;18.206;2023-10-19T06:40:06;69.40;;;30.48;;
23394;SDS011;11870;53.084;18.206;2023-10-19T06:42:32;65.65;;;30.15;;
23394;SDS011;11870;53.084;18.206;2023-10-19T06:45:00;58.13;;;28.45;;
23394;SDS011;11870;53.084;18.206;2023-10-19T06:47:27;63.80;;;29.85;;
23394;SDS011;11870;53.084;18.206;2023-10-19T06:49:54;63.00;;;29.10;;
23394;SDS011;11870;53.084;18.206;2023-10-19T06:52:21;66.97;;;30.73;;
23394;SDS011;11870;53.084;18.206;2023-10-19T06:54:47;75.53;;;30.33;;
23394;SDS011;11870;53.084;18.206;2023-10-19T06:57:14;57.20;;;26.83;;
23394;SDS011;11870;53.084;18.206;2023-10-19T06:59:40;57.95;;;26.08;;
23394;SDS011;11870;53.084;18.206;2023-10-19T07:02:06;64.43;;;26.48;;
23394;SDS011;11870;53.084;18.206;2023-10-19T07:04:33;58.10;;;26.73;;
23394;SDS011;11870;53.084;18.206;2023-10-19T07:06:59;59.30;;;28.20;;
23394;SDS011;11870;53.084;18.206;2023-10-19T07:09:26;60.92;;;28.10;;
23394;SDS011;11870;53.084;18.206;2023-10-19T07:11:52;53.83;;;25.83;;
23394;SDS011;11870;53.084;18.206;2023-10-19T07:14:20;47.03;;;23.95;;
23394;SDS011;11870;53.084;18.206;2023-10-19T07:16:48;52.90;;;22.75;;
23394;SDS011;11870;53.084;18.206;2023-10-19T07:19:15;50.65;;;23.13;;
23394;SDS011;11870;53.084;18.206;2023-10-19T07:21:42;51.28;;;22.45;;
23394;SDS011;11870;53.084;18.206;2023-10-19T07:24:09;44.00;;;22.38;;
23394;SDS011;11870;53.084;18.206;2023-10-19T07:26:36;49.47;;;21.98;;
23394;SDS011;11870;53.084;18.206;2023-10-19T07:29:09;50.33;;;23.33;;
23394;SDS011;11870;53.084;18.206;2023-10-19T07:31:35;49.38;;;22.75;;
23394;SDS011;11870;53.084;18.206;2023-10-19T07:34:02;49.50;;;23.23;;
23394;SDS011;11870;53.084;18.206;2023-10-19T07:36:28;48.78;;;22.38;;
23394;SDS011;11870;53.084;18.206;2023-10-19T07:38:56;47.63;;;22.80;;
23394;SDS011;11870;53.084;18.206;2023-10-19T07:41:23;49.53;;;22.98;;
23394;SDS011;11870;53.084;18.206;2023-10-19T07:43:49;46.28;;;22.65;;
23394;SDS011;11870;53.084;18.206;2023-10-19T07:46:15;49.00;;;22.35;;
23394;SDS011;11870;53.084;18.206;2023-10-19T07:48:42;43.17;;;21.48;;
23394;SDS011;11870;53.084;18.206;2023-10-19T07:51:08;47.10;;;21.75;;
23394;SDS011;11870;53.084;18.206;2023-10-19T07:53:36;41.30;;;22.20;;
23394;SDS011;11870;53.084;18.206;2023-10-19T07:56:02;44.83;;;22.90;;
23394;SDS011;11870;53.084;18.206;2023-10-19T07:58:29;60.90;;;29.33;;
23394;SDS011;11870;53.084;18.206;2023-10-19T08:00:56;44.35;;;21.33;;
23394;SDS011;11870;53.084;18.206;2023-10-19T08:03:23;44.47;;;19.60;;
23394;SDS011;11870;53.084;18.206;2023-10-19T08:05:50;43.45;;;20.75;;
23394;SDS011;11870;53.084;18.206;2023-10-19T08:08:17;42.95;;;21.20;;
23394;SDS011;11870;53.084;18.206;2023-10-19T08:10:43;36.88;;;19.25;;
23394;SDS011;11870;53.084;18.206;2023-10-19T08:13:09;46.30;;;20.50;;
23394;SDS011;11870;53.084;18.206;2023-10-19T08:15:37;44.28;;;20.17;;
23394;SDS011;11870;53.084;18.206;2023-10-19T08:18:04;38.47;;;19.75;;
23394;SDS011;11870;53.084;18.206;2023-10-19T08:20:31;35.95;;;18.63;;
23394;SDS011;11870;53.084;18.206;2023-10-19T08:22:58;33.78;;;17.45;;
23394;SDS011;11870;53.084;18.206;2023-10-19T08:25:26;33.80;;;17.67;;
23394;SDS011;11870;53.084;18.206;2023-10-19T08:27:52;31.48;;;16.73;;
23394;SDS011;11870;53.084;18.206;2023-10-19T08:30:22;35.58;;;17.70;;
23394;SDS011;11870;53.084;18.206;2023-10-19T08:32:49;37.33;;;18.27;;
23394;SDS011;11870;53.084;18.206;2023-10-19T08:35:17;31.90;;;16.42;;
23394;SDS011;11870;53.084;18.206;2023-10-19T08:37:55;40.08;;;17.63;;
23394;SDS011;11870;53.084;18.206;2023-10-19T08:40:24;34.97;;;17.23;;
23394;SDS011;11870;53.084;18.206;2023-10-19T08:42:52;30.85;;;17.08;;
23394;SDS011;11870;53.084;18.206;2023-10-19T08:45:19;53.25;;;23.25;;
23394;SDS011;11870;53.084;18.206;2023-10-19T08:50:23;37.47;;;18.92;;
23394;SDS011;11870;53.084;18.206;2023-10-19T08:52:56;36.05;;;16.73;;
23394;SDS011;11870;53.084;18.206;2023-10-19T08:55:23;30.83;;;16.25;;
23394;SDS011;11870;53.084;18.206;2023-10-19T08:57:50;28.40;;;15.23;;
23394;SDS011;11870;53.084;18.206;2023-10-19T09:00:17;48.42;;;20.98;;
23394;SDS011;11870;53.084;18.206;2023-10-19T09:02:44;30.67;;;15.25;;
23394;SDS011;11870;53.084;18.206;2023-10-19T09:05:11;31.63;;;14.88;;
23394;SDS011;11870;53.084;18.206;2023-10-19T09:07:54;30.23;;;14.82;;
23394;SDS011;11870;53.084;18.206;2023-10-19T09:12:58;31.23;;;15.73;;
23394;SDS011;11870;53.084;18.206;2023-10-19T09:15:29;27.88;;;14.25;;
23394;SDS011;11870;53.084;18.206;2023-10-19T09:17:58;31.50;;;16.55;;
23394;SDS011;11870;53.084;18.206;2023-10-19T09:20:24;28.38;;;14.52;;
23394;SDS011;11870;53.084;18.206;2023-10-19T09:22:54;27.48;;;14.23;;
23394;SDS011;11870;53.084;18.206;2023-10-19T09:25:22;25.65;;;14.32;;
23394;SDS011;11870;53.084;18.206;2023-10-19T09:27:48;25.35;;;13.90;;
23394;SDS011;11870;53.084;18.206;2023-10-19T09:30:15;26.80;;;13.75;;
23394;SDS011;11870;53.084;18.206;2023-10-19T09:32:46;27.48;;;14.13;;
23394;SDS011;11870;53.084;18.206;2023-10-19T09:35:16;25.42;;;12.80;;
23394;SDS011;11870;53.084;18.206;2023-10-19T09:37:44;27.02;;;13.38;;
23394;SDS011;11870;53.084;18.206;2023-10-19T09:40:13;27.65;;;13.10;;
23394;SDS011;11870;53.084;18.206;2023-10-19T09:42:42;23.92;;;13.63;;
23394;SDS011;11870;53.084;18.206;2023-10-19T09:45:12;27.63;;;14.70;;
23394;SDS011;11870;53.084;18.206;2023-10-19T09:47:44;28.88;;;14.85;;
23394;SDS011;11870;53.084;18.206;2023-10-19T09:50:15;32.53;;;15.02;;
23394;SDS011;11870;53.084;18.206;2023-10-19T09:52:41;29.73;;;14.90;;
23394;SDS011;11870;53.084;18.206;2023-10-19T09:55:10;27.10;;;14.63;;
23394;SDS011;11870;53.084;18.206;2023-10-19T09:57:55;28.45;;;14.43;;
23394;SDS011;11870;53.084;18.206;2023-10-19T10:00:25;27.13;;;13.50;;
23394;SDS011;11870;53.084;18.206;2023-10-19T10:02:57;27.27;;;13.63;;
23394;SDS011;11870;53.084;18.206;2023-10-19T10:10:45;27.67;;;13.90;;
23394;SDS011;11870;53.084;18.206;2023-10-19T10:15:51;24.17;;;12.85;;
23394;SDS011;11870;53.084;18.206;2023-10-19T10:18:20;22.55;;;12.40;;
23394;SDS011;11870;53.084;18.206;2023-10-19T10:20:46;23.35;;;12.93;;
23394;SDS011;11870;53.084;18.206;2023-10-19T10:23:19;28.23;;;13.00;;
23394;SDS011;11870;53.084;18.206;2023-10-19T10:25:57;31.70;;;15.82;;
23394;SDS011;11870;53.084;18.206;2023-10-19T10:28:24;38.75;;;15.55;;
23394;SDS011;11870;53.084;18.206;2023-10-19T10:31:09;30.80;;;15.02;;
23394;SDS011;11870;53.084;18.206;2023-10-19T10:33:50;31.17;;;14.80;;
23394;SDS011;11870;53.084;18.206;2023-10-19T10:36:17;23.90;;;13.27;;
23394;SDS011;11870;53.084;18.206;2023-10-19T10:38:50;28.65;;;14.85;;
23394;SDS011;11870;53.084;18.206;2023-10-19T10:41:23;25.73;;;13.60;;
23394;SDS011;11870;53.084;18.206;2023-10-19T10:43:57;28.52;;;14.07;;
23394;SDS011;11870;53.084;18.206;2023-10-19T10:46:25;26.77;;;13.50;;
23394;SDS011;11870;53.084;18.206;2023-10-19T10:48:55;25.38;;;13.75;;
23394;SDS011;11870;53.084;18.206;2023-10-19T10:51:22;27.42;;;13.75;;
23394;SDS011;11870;53.084;18.206;2023-10-19T10:53:50;27.90;;;13.32;;
23394;SDS011;11870;53.084;18.206;2023-10-19T10:56:17;23.75;;;12.32;;
23394;SDS011;11870;53.084;18.206;2023-10-19T10:58:47;21.75;;;12.68;;
23394;SDS011;11870;53.084;18.206;2023-10-19T11:01:14;21.75;;;12.70;;
23394;SDS011;11870;53.084;18.206;2023-10-19T11:03:41;22.63;;;12.52;;
23394;SDS011;11870;53.084;18.206;2023-10-19T11:06:08;25.17;;;13.60;;
23394;SDS011;11870;53.084;18.206;2023-10-19T11:08:35;22.60;;;12.95;;
23394;SDS011;11870;53.084;18.206;2023-10-19T11:11:06;84.13;;;33.47;;
23394;SDS011;11870;53.084;18.206;2023-10-19T11:13:37;24.30;;;13.85;;
23394;SDS011;11870;53.084;18.206;2023-10-19T11:16:05;25.55;;;13.60;;
23394;SDS011;11870;53.084;18.206;2023-10-19T11:18:34;29.83;;;14.60;;
23394;SDS011;11870;53.084;18.206;2023-10-19T11:21:11;26.08;;;14.13;;
23394;SDS011;11870;53.084;18.206;2023-10-19T11:23:41;27.23;;;13.90;;
23394;SDS011;11870;53.084;18.206;2023-10-19T11:26:12;28.02;;;14.93;;
23394;SDS011;11870;53.084;18.206;2023-10-19T11:28:43;22.90;;;12.00;;
23394;SDS011;11870;53.084;18.206;2023-10-19T11:33:42;19.90;;;12.45;;
23394;SDS011;11870;53.084;18.206;2023-10-19T11:36:10;21.73;;;12.25;;
23394;SDS011;11870;53.084;18.206;2023-10-19T11:38:40;22.48;;;12.13;;
23394;SDS011;11870;53.084;18.206;2023-10-19T11:41:08;22.30;;;11.32;;
23394;SDS011;11870;53.084;18.206;2023-10-19T11:43:35;21.90;;;12.00;;
23394;SDS011;11870;53.084;18.206;2023-10-19T11:46:02;23.88;;;11.93;;
23394;SDS011;11870;53.084;18.206;2023-10-19T11:48:34;22.33;;;12.57;;
23394;SDS011;11870;53.084;18.206;2023-10-19T11:51:04;19.38;;;11.75;;
23394;SDS011;11870;53.084;18.206;2023-10-19T11:53:34;23.58;;;12.13;;
23394;SDS011;11870;53.084;18.206;2023-10-19T11:56:05;21.40;;;10.93;;
23394;SDS011;11870;53.084;18.206;2023-10-19T11:58:33;19.08;;;11.20;;
23394;SDS011;11870;53.084;18.206;2023-10-19T12:01:03;21.90;;;11.20;;
23394;SDS011;11870;53.084;18.206;2023-10-19T12:03:39;24.17;;;11.65;;
23394;SDS011;11870;53.084;18.206;2023-10-19T12:06:06;21.55;;;11.45;;
23394;SDS011;11870;53.084;18.206;2023-10-19T12:08:35;20.63;;;11.55;;
23394;SDS011;11870;53.084;18.206;2023-10-19T12:11:02;22.55;;;12.40;;
23394;SDS011;11870;53.084;18.206;2023-10-19T12:13:34;20.75;;;11.52;;
23394;SDS011;11870;53.084;18.206;2023-10-19T12:16:00;27.60;;;13.25;;
23394;SDS011;11870;53.084;18.206;2023-10-19T12:18:30;25.55;;;13.40;;
23394;SDS011;11870;53.084;18.206;2023-10-19T12:20:56;26.65;;;13.20;;
23394;SDS011;11870;53.084;18.206;2023-10-19T12:23:25;35.45;;;17.60;;
23394;SDS011;11870;53.084;18.206;2023-10-19T12:25:51;34.03;;;16.27;;
23394;SDS011;11870;53.084;18.206;2023-10-19T12:28:18;20.27;;;11.80;;
23394;SDS011;11870;53.084;18.206;2023-10-19T12:30:44;19.92;;;10.90;;
23394;SDS011;11870;53.084;18.206;2023-10-19T12:33:11;29.17;;;14.27;;
23394;SDS011;11870;53.084;18.206;2023-10-19T12:35:37;35.60;;;15.20;;
23394;SDS011;11870;53.084;18.206;2023-10-19T12:38:11;34.72;;;15.95;;
23394;SDS011;11870;53.084;18.206;2023-10-19T12:40:49;23.92;;;11.77;;
23394;SDS011;11870;53.084;18.206;2023-10-19T12:43:19;23.63;;;12.63;;
23394;SDS011;11870;53.084;18.206;2023-10-19T12:45:50;23.70;;;12.18;;
23394;SDS011;11870;53.084;18.206;2023-10-19T12:48:20;17.40;;;11.25;;
23394;SDS011;11870;53.084;18.206;2023-10-19T12:50:46;22.08;;;11.85;;
23394;SDS011;11870;53.084;18.206;2023-10-19T12:53:13;32.70;;;12.68;;
23394;SDS011;11870;53.084;18.206;2023-10-19T12:55:39;23.88;;;12.93;;
23394;SDS011;11870;53.084;18.206;2023-10-19T12:58:08;21.98;;;10.95;;
23394;SDS011;11870;53.084;18.206;2023-10-19T13:00:36;23.20;;;13.45;;
23394;SDS011;11870;53.084;18.206;2023-10-19T13:03:09;20.60;;;11.18;;
23394;SDS011;11870;53.084;18.206;2023-10-19T13:05:39;28.80;;;12.95;;
23394;SDS011;11870;53.084;18.206;2023-10-19T13:08:15;25.70;;;14.48;;
23394;SDS011;11870;53.084;18.206;2023-10-19T13:10:42;22.88;;;12.95;;
23394;SDS011;11870;53.084;18.206;2023-10-19T13:13:09;21.85;;;12.48;;
23394;SDS011;11870;53.084;18.206;2023-10-19T13:15:37;25.98;;;12.48;;
23394;SDS011;11870;53.084;18.206;2023-10-19T13:18:08;17.58;;;10.65;;
23394;SDS011;11870;53.084;18.206;2023-10-19T13:20:36;21.33;;;10.45;;
23394;SDS011;11870;53.084;18.206;2023-10-19T13:23:03;21.15;;;11.68;;
23394;SDS011;11870;53.084;18.206;2023-10-19T13:25:32;19.85;;;12.57;;
23394;SDS011;11870;53.084;18.206;2023-10-19T13:28:10;23.77;;;11.25;;
23394;SDS011;11870;53.084;18.206;2023-10-19T13:30:38;20.17;;;12.35;;
23394;SDS011;11870;53.084;18.206;2023-10-19T13:33:05;17.63;;;9.82;;
23394;SDS011;11870;53.084;18.206;2023-10-19T13:35:34;21.20;;;10.98;;
23394;SDS011;11870;53.084;18.206;2023-10-19T13:38:00;19.83;;;10.35;;
23394;SDS011;11870;53.084;18.206;2023-10-19T13:40:27;41.28;;;18.25;;
23394;SDS011;11870;53.084;18.206;2023-10-19T13:42:57;80.55;;;36.50;;
23394;SDS011;11870;53.084;18.206;2023-10-19T13:45:24;59.00;;;32.40;;
23394;SDS011;11870;53.084;18.206;2023-10-19T13:47:53;19.88;;;12.00;;
23394;SDS011;11870;53.084;18.206;2023-10-19T13:50:21;102.88;;;44.08;;
23394;SDS011;11870;53.084;18.206;2023-10-19T13:52:54;94.38;;;39.20;;
23394;SDS011;11870;53.084;18.206;2023-10-19T13:55:22;166.50;;;67.85;;
23394;SDS011;11870;53.084;18.206;2023-10-19T13:57:49;63.53;;;31.50;;
23394;SDS011;11870;53.084;18.206;2023-10-19T14:00:15;14.40;;;8.15;;
23394;SDS011;11870;53.084;18.206;2023-10-19T14:02:51;19.08;;;10.90;;
23394;SDS011;11870;53.084;18.206;2023-10-19T14:05:17;21.77;;;11.70;;
23394;SDS011;11870;53.084;18.206;2023-10-19T14:07:44;23.58;;;9.65;;
23394;SDS011;11870;53.084;18.206;2023-10-19T14:10:12;22.60;;;9.63;;
23394;SDS011;11870;53.084;18.206;2023-10-19T14:12:41;18.20;;;9.70;;
23394;SDS011;11870;53.084;18.206;2023-10-19T14:15:12;18.20;;;8.68;;
23394;SDS011;11870;53.084;18.206;2023-10-19T14:17:41;15.40;;;8.48;;
23394;SDS011;11870;53.084;18.206;2023-10-19T14:20:07;21.40;;;10.27;;
23394;SDS011;11870;53.084;18.206;2023-10-19T14:22:38;22.40;;;10.80;;
23394;SDS011;11870;53.084;18.206;2023-10-19T14:25:06;17.70;;;9.80;;
23394;SDS011;11870;53.084;18.206;2023-10-19T14:27:35;19.02;;;10.15;;
23394;SDS011;11870;53.084;18.206;2023-10-19T14:30:02;18.05;;;10.35;;
23394;SDS011;11870;53.084;18.206;2023-10-19T14:32:29;17.70;;;9.77;;
23394;SDS011;11870;53.084;18.206;2023-10-19T14:34:55;20.58;;;11.27;;